sensor_id;sensor_type;location;lat;lon;timestamp;pressure;altitude;pressure_sealevel;temperature;humidity
49645;BME280;36494;50.730;-1.932;2023-02-17T00:01:44;101776.35;;;10.44;100.00
49645;BME280;36494;50.730;-1.932;2023-02-17T00:04:10;101778.35;;;10.42;100.00
49645;BME280;36494;50.730;-1.932;2023-02-17T00:06:36;101776.65;;;10.45;100.00
49645;BME280;36494;50.730;-1.932;2023-02-17T00:09:01;101779.85;;;10.44;100.00
49645;BME280;36494;50.730;-1.932;2023-02-17T00:11:26;101779.34;;;10.37;100.00
49645;BME280;36494;50.730;-1.932;2023-02-17T00:13:51;101777.43;;;10.39;100.00
49645;BME280;36494;50.730;-1.932;2023-02-17T00:16:19;101779.99;;;10.46;100.00
49645;BME280;36494;50.730;-1.932;2023-02-17T00:18:42;101780.76;;;10.47;100.00
49645;BME280;36494;50.730;-1.932;2023-02-17T00:21:13;101777.99;;;10.50;100.00
49645;BME280;36494;50.730;-1.932;2023-02-17T00:23:33;101774.79;;;10.51;100.00
49645;BME280;36494;50.730;-1.932;2023-02-17T00:25:59;101773.93;;;10.39;100.00
49645;BME280;36494;50.730;-1.932;2023-02-17T00:28:24;101772.78;;;10.42;100.00
49645;BME280;36494;50.730;-1.932;2023-02-17T00:30:50;101772.66;;;10.45;100.00
49645;BME280;36494;50.730;-1.932;2023-02-17T00:33:16;101776.10;;;10.35;100.00
49645;BME280;36494;50.730;-1.932;2023-02-17T00:35:41;101777.84;;;10.42;100.00
49645;BME280;36494;50.730;-1.932;2023-02-17T00:38:07;101777.57;;;10.41;100.00
49645;BME280;36494;50.730;-1.932;2023-02-17T00:40:32;101779.18;;;10.37;100.00
49645;BME280;36494;50.730;-1.932;2023-02-17T00:42:57;101775.39;;;10.37;100.00
49645;BME280;36494;50.730;-1.932;2023-02-17T00:45:23;101772.05;;;10.38;100.00
49645;BME280;36494;50.730;-1.932;2023-02-17T00:47:48;101769.49;;;10.39;100.00
49645;BME280;36494;50.730;-1.932;2023-02-17T00:50:14;101766.63;;;10.39;100.00
49645;BME280;36494;50.730;-1.932;2023-02-17T00:52:40;101765.91;;;10.40;100.00
49645;BME280;36494;50.730;-1.932;2023-02-17T00:55:07;101764.41;;;10.40;100.00
49645;BME280;36494;50.730;-1.932;2023-02-17T00:57:32;101759.83;;;10.36;100.00
49645;BME280;36494;50.730;-1.932;2023-02-17T00:59:57;101759.46;;;10.37;100.00
49645;BME280;36494;50.730;-1.932;2023-02-17T01:02:22;101759.30;;;10.35;100.00
49645;BME280;36494;50.730;-1.932;2023-02-17T01:04:48;101761.28;;;10.39;100.00
49645;BME280;36494;50.730;-1.932;2023-02-17T01:07:13;101756.74;;;10.42;100.00
49645;BME280;36494;50.730;-1.932;2023-02-17T01:09:39;101746.90;;;10.41;100.00
49645;BME280;36494;50.730;-1.932;2023-02-17T01:12:04;101755.47;;;10.41;100.00
49645;BME280;36494;50.730;-1.932;2023-02-17T01:14:29;101761.17;;;10.37;100.00
49645;BME280;36494;50.730;-1.932;2023-02-17T01:16:55;101756.95;;;10.35;100.00
49645;BME280;36494;50.730;-1.932;2023-02-17T01:19:21;101755.55;;;10.37;100.00
49645;BME280;36494;50.730;-1.932;2023-02-17T01:21:47;101749.11;;;10.36;100.00
49645;BME280;36494;50.730;-1.932;2023-02-17T01:24:12;101756.27;;;10.42;100.00
49645;BME280;36494;50.730;-1.932;2023-02-17T01:26:38;101753.35;;;10.41;100.00
49645;BME280;36494;50.730;-1.932;2023-02-17T01:29:03;101752.73;;;10.41;100.00
49645;BME280;36494;50.730;-1.932;2023-02-17T01:31:29;101746.33;;;10.40;100.00
49645;BME280;36494;50.730;-1.932;2023-02-17T01:33:56;101742.29;;;10.45;100.00
49645;BME280;36494;50.730;-1.932;2023-02-17T01:36:20;101734.83;;;10.44;100.00
49645;BME280;36494;50.730;-1.932;2023-02-17T01:38:45;101729.96;;;10.48;100.00
49645;BME280;36494;50.730;-1.932;2023-02-17T01:41:12;101730.51;;;10.42;100.00
49645;BME280;36494;50.730;-1.932;2023-02-17T01:43:36;101732.86;;;10.44;100.00
49645;BME280;36494;50.730;-1.932;2023-02-17T01:46:01;101730.48;;;10.49;100.00
49645;BME280;36494;50.730;-1.932;2023-02-17T01:48:28;101724.03;;;10.50;100.00
49645;BME280;36494;50.730;-1.932;2023-02-17T01:50:54;101721.28;;;10.45;100.00
49645;BME280;36494;50.730;-1.932;2023-02-17T01:53:21;101726.53;;;10.47;100.00
49645;BME280;36494;50.730;-1.932;2023-02-17T01:55:45;101727.98;;;10.51;100.00
49645;BME280;36494;50.730;-1.932;2023-02-17T01:58:11;101731.64;;;10.51;100.00
49645;BME280;36494;50.730;-1.932;2023-02-17T02:00:35;101731.03;;;10.53;100.00
49645;BME280;36494;50.730;-1.932;2023-02-17T02:03:00;101730.90;;;10.53;100.00
49645;BME280;36494;50.730;-1.932;2023-02-17T02:05:25;101729.82;;;10.47;100.00
49645;BME280;36494;50.730;-1.932;2023-02-17T02:07:51;101731.29;;;10.52;100.00
49645;BME280;36494;50.730;-1.932;2023-02-17T02:10:17;101730.14;;;10.55;100.00
49645;BME280;36494;50.730;-1.932;2023-02-17T02:12:41;101732.65;;;10.56;100.00
49645;BME280;36494;50.730;-1.932;2023-02-17T02:15:08;101725.15;;;10.59;100.00
49645;BME280;36494;50.730;-1.932;2023-02-17T02:17:34;101727.98;;;10.56;100.00
49645;BME280;36494;50.730;-1.932;2023-02-17T02:20:06;101727.42;;;10.52;100.00
49645;BME280;36494;50.730;-1.932;2023-02-17T02:22:33;101725.97;;;10.58;100.00
49645;BME280;36494;50.730;-1.932;2023-02-17T02:24:54;101727.28;;;10.54;100.00
49645;BME280;36494;50.730;-1.932;2023-02-17T02:27:26;101726.95;;;10.58;100.00
49645;BME280;36494;50.730;-1.932;2023-02-17T02:29:57;101723.57;;;10.57;100.00
49645;BME280;36494;50.730;-1.932;2023-02-17T02:32:20;101727.18;;;10.44;100.00
49645;BME280;36494;50.730;-1.932;2023-02-17T02:34:32;101727.84;;;10.51;100.00
49645;BME280;36494;50.730;-1.932;2023-02-17T02:37:01;101732.34;;;10.48;100.00
49645;BME280;36494;50.730;-1.932;2023-02-17T02:39:23;101728.74;;;10.43;100.00
49645;BME280;36494;50.730;-1.932;2023-02-17T02:41:49;101733.58;;;10.50;100.00
49645;BME280;36494;50.730;-1.932;2023-02-17T02:44:13;101736.73;;;10.51;100.00
49645;BME280;36494;50.730;-1.932;2023-02-17T02:46:37;101738.55;;;10.50;100.00
49645;BME280;36494;50.730;-1.932;2023-02-17T02:49:03;101735.44;;;10.47;100.00
49645;BME280;36494;50.730;-1.932;2023-02-17T02:51:35;101732.47;;;10.44;100.00
49645;BME280;36494;50.730;-1.932;2023-02-17T02:54:03;101734.62;;;10.42;100.00
49645;BME280;36494;50.730;-1.932;2023-02-17T02:56:27;101738.00;;;10.45;100.00
49645;BME280;36494;50.730;-1.932;2023-02-17T02:58:50;101737.44;;;10.44;100.00
49645;BME280;36494;50.730;-1.932;2023-02-17T03:01:14;101738.50;;;10.45;100.00
49645;BME280;36494;50.730;-1.932;2023-02-17T03:03:41;101743.95;;;10.34;100.00
49645;BME280;36494;50.730;-1.932;2023-02-17T03:06:05;101745.74;;;10.43;100.00
49645;BME280;36494;50.730;-1.932;2023-02-17T03:08:32;101745.90;;;10.33;100.00
49645;BME280;36494;50.730;-1.932;2023-02-17T03:10:53;101750.04;;;10.30;100.00
49645;BME280;36494;50.730;-1.932;2023-02-17T03:13:19;101753.42;;;10.29;100.00
49645;BME280;36494;50.730;-1.932;2023-02-17T03:15:44;101750.48;;;10.34;100.00
49645;BME280;36494;50.730;-1.932;2023-02-17T03:18:09;101745.54;;;10.38;100.00
49645;BME280;36494;50.730;-1.932;2023-02-17T03:20:37;101748.05;;;10.36;100.00
49645;BME280;36494;50.730;-1.932;2023-02-17T03:23:00;101753.49;;;10.34;100.00
49645;BME280;36494;50.730;-1.932;2023-02-17T03:25:26;101758.74;;;10.37;100.00
49645;BME280;36494;50.730;-1.932;2023-02-17T03:27:51;101756.53;;;10.35;100.00
49645;BME280;36494;50.730;-1.932;2023-02-17T03:30:17;101751.99;;;10.34;100.00
49645;BME280;36494;50.730;-1.932;2023-02-17T03:32:42;101750.25;;;10.35;100.00
49645;BME280;36494;50.730;-1.932;2023-02-17T03:35:08;101746.65;;;10.33;100.00
49645;BME280;36494;50.730;-1.932;2023-02-17T03:37:33;101750.80;;;10.35;100.00
49645;BME280;36494;50.730;-1.932;2023-02-17T03:39:59;101748.16;;;10.31;100.00
49645;BME280;36494;50.730;-1.932;2023-02-17T03:42:24;101748.15;;;10.34;100.00
49645;BME280;36494;50.730;-1.932;2023-02-17T03:44:49;101746.15;;;10.36;100.00
49645;BME280;36494;50.730;-1.932;2023-02-17T03:47:15;101756.94;;;10.37;100.00
49645;BME280;36494;50.730;-1.932;2023-02-17T03:49:41;101765.09;;;10.45;100.00
49645;BME280;36494;50.730;-1.932;2023-02-17T03:52:06;101761.83;;;10.46;100.00
49645;BME280;36494;50.730;-1.932;2023-02-17T03:54:31;101767.95;;;10.38;100.00
49645;BME280;36494;50.730;-1.932;2023-02-17T03:56:57;101768.84;;;10.45;100.00
49645;BME280;36494;50.730;-1.932;2023-02-17T03:59:22;101769.48;;;10.42;100.00
49645;BME280;36494;50.730;-1.932;2023-02-17T04:01:47;101765.18;;;10.42;100.00
49645;BME280;36494;50.730;-1.932;2023-02-17T04:04:13;101770.48;;;10.29;100.00
49645;BME280;36494;50.730;-1.932;2023-02-17T04:06:38;101763.07;;;10.37;100.00
49645;BME280;36494;50.730;-1.932;2023-02-17T04:09:04;101761.76;;;10.36;100.00
49645;BME280;36494;50.730;-1.932;2023-02-17T04:11:29;101760.93;;;10.35;100.00
49645;BME280;36494;50.730;-1.932;2023-02-17T04:13:55;101763.71;;;10.38;100.00
49645;BME280;36494;50.730;-1.932;2023-02-17T04:16:20;101766.23;;;10.41;100.00
49645;BME280;36494;50.730;-1.932;2023-02-17T04:18:46;101770.93;;;10.41;100.00
49645;BME280;36494;50.730;-1.932;2023-02-17T04:21:12;101773.13;;;10.40;100.00
49645;BME280;36494;50.730;-1.932;2023-02-17T04:23:37;101779.38;;;10.39;100.00
49645;BME280;36494;50.730;-1.932;2023-02-17T04:26:04;101779.05;;;10.41;100.00
49645;BME280;36494;50.730;-1.932;2023-02-17T04:28:29;101786.36;;;10.41;100.00
49645;BME280;36494;50.730;-1.932;2023-02-17T04:30:56;101780.41;;;10.38;100.00
49645;BME280;36494;50.730;-1.932;2023-02-17T04:33:20;101784.87;;;10.39;100.00
49645;BME280;36494;50.730;-1.932;2023-02-17T04:35:46;101791.31;;;10.39;100.00
49645;BME280;36494;50.730;-1.932;2023-02-17T04:38:10;101785.93;;;10.39;100.00
49645;BME280;36494;50.730;-1.932;2023-02-17T04:40:36;101785.52;;;10.37;100.00
49645;BME280;36494;50.730;-1.932;2023-02-17T04:43:01;101786.60;;;10.40;100.00
49645;BME280;36494;50.730;-1.932;2023-02-17T04:45:27;101788.77;;;10.38;100.00
49645;BME280;36494;50.730;-1.932;2023-02-17T04:47:52;101789.90;;;10.35;100.00
49645;BME280;36494;50.730;-1.932;2023-02-17T04:50:18;101787.61;;;10.38;100.00
49645;BME280;36494;50.730;-1.932;2023-02-17T04:52:43;101787.96;;;10.39;100.00
49645;BME280;36494;50.730;-1.932;2023-02-17T04:55:08;101793.18;;;10.38;100.00
49645;BME280;36494;50.730;-1.932;2023-02-17T04:57:34;101790.61;;;10.38;100.00
49645;BME280;36494;50.730;-1.932;2023-02-17T04:59:59;101790.34;;;10.44;100.00
49645;BME280;36494;50.730;-1.932;2023-02-17T05:02:25;101790.88;;;10.33;100.00
49645;BME280;36494;50.730;-1.932;2023-02-17T05:04:50;101789.64;;;10.40;100.00
49645;BME280;36494;50.730;-1.932;2023-02-17T05:07:15;101788.39;;;10.40;100.00
49645;BME280;36494;50.730;-1.932;2023-02-17T05:09:41;101788.22;;;10.36;100.00
49645;BME280;36494;50.730;-1.932;2023-02-17T05:12:06;101784.31;;;10.40;100.00
49645;BME280;36494;50.730;-1.932;2023-02-17T05:14:31;101784.54;;;10.36;100.00
49645;BME280;36494;50.730;-1.932;2023-02-17T05:16:57;101782.97;;;10.36;100.00
49645;BME280;36494;50.730;-1.932;2023-02-17T05:19:23;101780.60;;;10.37;100.00
49645;BME280;36494;50.730;-1.932;2023-02-17T05:21:48;101780.58;;;10.38;100.00
49645;BME280;36494;50.730;-1.932;2023-02-17T05:24:13;101781.79;;;10.37;100.00
49645;BME280;36494;50.730;-1.932;2023-02-17T05:26:39;101782.67;;;10.38;100.00
49645;BME280;36494;50.730;-1.932;2023-02-17T05:29:04;101782.07;;;10.38;100.00
49645;BME280;36494;50.730;-1.932;2023-02-17T05:31:29;101775.06;;;10.37;100.00
49645;BME280;36494;50.730;-1.932;2023-02-17T05:33:55;101770.53;;;10.39;100.00
49645;BME280;36494;50.730;-1.932;2023-02-17T05:36:20;101770.48;;;10.37;100.00
49645;BME280;36494;50.730;-1.932;2023-02-17T05:38:45;101770.15;;;10.42;100.00
49645;BME280;36494;50.730;-1.932;2023-02-17T05:41:11;101764.56;;;10.41;100.00
49645;BME280;36494;50.730;-1.932;2023-02-17T05:43:36;101763.03;;;10.38;100.00
49645;BME280;36494;50.730;-1.932;2023-02-17T05:46:02;101760.97;;;10.39;100.00
49645;BME280;36494;50.730;-1.932;2023-02-17T05:48:27;101755.96;;;10.32;100.00
49645;BME280;36494;50.730;-1.932;2023-02-17T05:50:52;101753.00;;;10.36;100.00
49645;BME280;36494;50.730;-1.932;2023-02-17T05:53:18;101751.59;;;10.28;100.00
49645;BME280;36494;50.730;-1.932;2023-02-17T05:55:43;101748.91;;;10.34;100.00
49645;BME280;36494;50.730;-1.932;2023-02-17T05:58:09;101746.27;;;10.36;100.00
49645;BME280;36494;50.730;-1.932;2023-02-17T06:00:34;101744.53;;;10.30;100.00
49645;BME280;36494;50.730;-1.932;2023-02-17T06:02:59;101746.35;;;10.29;100.00
49645;BME280;36494;50.730;-1.932;2023-02-17T06:05:24;101749.77;;;10.28;100.00
49645;BME280;36494;50.730;-1.932;2023-02-17T06:07:50;101748.62;;;10.28;100.00
49645;BME280;36494;50.730;-1.932;2023-02-17T06:10:16;101750.14;;;10.21;100.00
49645;BME280;36494;50.730;-1.932;2023-02-17T06:12:41;101747.23;;;10.23;100.00
49645;BME280;36494;50.730;-1.932;2023-02-17T06:15:07;101743.66;;;10.17;100.00
49645;BME280;36494;50.730;-1.932;2023-02-17T06:17:32;101742.73;;;10.16;100.00
49645;BME280;36494;50.730;-1.932;2023-02-17T06:19:57;101750.38;;;10.12;100.00
49645;BME280;36494;50.730;-1.932;2023-02-17T06:22:23;101755.26;;;10.04;100.00
49645;BME280;36494;50.730;-1.932;2023-02-17T06:24:48;101743.77;;;10.08;100.00
49645;BME280;36494;50.730;-1.932;2023-02-17T06:27:14;101743.41;;;10.13;100.00
49645;BME280;36494;50.730;-1.932;2023-02-17T06:29:39;101742.25;;;10.08;100.00
49645;BME280;36494;50.730;-1.932;2023-02-17T06:32:04;101743.92;;;10.08;100.00
49645;BME280;36494;50.730;-1.932;2023-02-17T06:34:29;101745.26;;;9.98;100.00
49645;BME280;36494;50.730;-1.932;2023-02-17T06:36:54;101739.84;;;10.03;100.00
49645;BME280;36494;50.730;-1.932;2023-02-17T06:39:20;101745.31;;;10.05;100.00
49645;BME280;36494;50.730;-1.932;2023-02-17T06:41:45;101747.65;;;10.00;100.00
49645;BME280;36494;50.730;-1.932;2023-02-17T06:44:10;101747.62;;;10.03;100.00
49645;BME280;36494;50.730;-1.932;2023-02-17T06:46:36;101750.40;;;10.03;100.00
49645;BME280;36494;50.730;-1.932;2023-02-17T06:49:01;101756.15;;;10.02;100.00
49645;BME280;36494;50.730;-1.932;2023-02-17T06:51:27;101752.17;;;9.95;100.00
49645;BME280;36494;50.730;-1.932;2023-02-17T06:53:52;101753.77;;;9.97;100.00
49645;BME280;36494;50.730;-1.932;2023-02-17T06:56:17;101762.15;;;9.96;100.00
49645;BME280;36494;50.730;-1.932;2023-02-17T06:58:43;101763.66;;;9.93;100.00
49645;BME280;36494;50.730;-1.932;2023-02-17T07:01:15;101765.26;;;9.94;100.00
49645;BME280;36494;50.730;-1.932;2023-02-17T07:03:34;101771.98;;;9.99;100.00
49645;BME280;36494;50.730;-1.932;2023-02-17T07:05:59;101776.42;;;9.97;100.00
49645;BME280;36494;50.730;-1.932;2023-02-17T07:08:25;101778.21;;;9.99;100.00
49645;BME280;36494;50.730;-1.932;2023-02-17T07:10:51;101778.84;;;10.02;100.00
49645;BME280;36494;50.730;-1.932;2023-02-17T07:13:16;101783.22;;;9.99;100.00
49645;BME280;36494;50.730;-1.932;2023-02-17T07:15:41;101786.66;;;9.94;100.00
49645;BME280;36494;50.730;-1.932;2023-02-17T07:18:06;101793.03;;;9.98;100.00
49645;BME280;36494;50.730;-1.932;2023-02-17T07:20:32;101786.58;;;9.98;100.00
49645;BME280;36494;50.730;-1.932;2023-02-17T07:22:57;101787.53;;;10.01;100.00
49645;BME280;36494;50.730;-1.932;2023-02-17T07:25:22;101789.08;;;10.03;100.00
49645;BME280;36494;50.730;-1.932;2023-02-17T07:27:48;101795.44;;;10.01;100.00
49645;BME280;36494;50.730;-1.932;2023-02-17T07:30:14;101796.63;;;9.93;100.00
49645;BME280;36494;50.730;-1.932;2023-02-17T07:32:40;101797.55;;;9.91;100.00
49645;BME280;36494;50.730;-1.932;2023-02-17T07:35:06;101798.97;;;9.92;100.00
49645;BME280;36494;50.730;-1.932;2023-02-17T07:37:31;101802.08;;;9.98;100.00
49645;BME280;36494;50.730;-1.932;2023-02-17T07:39:57;101796.87;;;9.93;100.00
49645;BME280;36494;50.730;-1.932;2023-02-17T07:42:27;101796.16;;;9.93;100.00
49645;BME280;36494;50.730;-1.932;2023-02-17T07:44:47;101796.57;;;9.92;100.00
49645;BME280;36494;50.730;-1.932;2023-02-17T07:47:13;101808.11;;;9.91;100.00
49645;BME280;36494;50.730;-1.932;2023-02-17T07:49:38;101808.61;;;10.02;100.00
49645;BME280;36494;50.730;-1.932;2023-02-17T07:52:04;101818.20;;;9.95;100.00
49645;BME280;36494;50.730;-1.932;2023-02-17T07:54:29;101825.31;;;9.99;100.00
49645;BME280;36494;50.730;-1.932;2023-02-17T07:56:54;101831.50;;;10.02;100.00
49645;BME280;36494;50.730;-1.932;2023-02-17T07:59:20;101842.04;;;10.10;100.00
49645;BME280;36494;50.730;-1.932;2023-02-17T08:01:45;101847.03;;;10.12;100.00
49645;BME280;36494;50.730;-1.932;2023-02-17T08:04:10;101850.73;;;10.06;100.00
49645;BME280;36494;50.730;-1.932;2023-02-17T08:06:37;101856.54;;;10.09;100.00
49645;BME280;36494;50.730;-1.932;2023-02-17T08:09:02;101862.25;;;10.09;100.00
49645;BME280;36494;50.730;-1.932;2023-02-17T08:11:29;101864.46;;;10.11;100.00
49645;BME280;36494;50.730;-1.932;2023-02-17T08:13:53;101866.30;;;10.12;100.00
49645;BME280;36494;50.730;-1.932;2023-02-17T08:16:19;101873.54;;;10.08;100.00
49645;BME280;36494;50.730;-1.932;2023-02-17T08:18:44;101878.67;;;10.07;100.00
49645;BME280;36494;50.730;-1.932;2023-02-17T08:21:09;101880.05;;;10.06;100.00
49645;BME280;36494;50.730;-1.932;2023-02-17T08:23:35;101878.68;;;10.09;100.00
49645;BME280;36494;50.730;-1.932;2023-02-17T08:26:01;101882.22;;;10.18;100.00
49645;BME280;36494;50.730;-1.932;2023-02-17T08:28:26;101887.72;;;10.20;100.00
49645;BME280;36494;50.730;-1.932;2023-02-17T08:30:51;101877.65;;;10.19;100.00
49645;BME280;36494;50.730;-1.932;2023-02-17T08:33:16;101871.61;;;10.15;100.00
49645;BME280;36494;50.730;-1.932;2023-02-17T08:35:42;101883.05;;;10.12;100.00
49645;BME280;36494;50.730;-1.932;2023-02-17T08:38:07;101892.06;;;10.14;100.00
49645;BME280;36494;50.730;-1.932;2023-02-17T08:40:32;101890.08;;;10.14;100.00
49645;BME280;36494;50.730;-1.932;2023-02-17T08:42:58;101887.15;;;10.19;100.00
49645;BME280;36494;50.730;-1.932;2023-02-17T08:45:23;101888.75;;;10.16;100.00
49645;BME280;36494;50.730;-1.932;2023-02-17T08:47:49;101898.92;;;10.18;100.00
49645;BME280;36494;50.730;-1.932;2023-02-17T08:50:14;101904.91;;;10.19;100.00
49645;BME280;36494;50.730;-1.932;2023-02-17T08:52:40;101907.85;;;10.19;100.00
49645;BME280;36494;50.730;-1.932;2023-02-17T08:55:05;101909.19;;;10.24;100.00
49645;BME280;36494;50.730;-1.932;2023-02-17T08:57:30;101911.76;;;10.24;100.00
49645;BME280;36494;50.730;-1.932;2023-02-17T08:59:56;101915.86;;;10.23;100.00
49645;BME280;36494;50.730;-1.932;2023-02-17T09:02:22;101922.07;;;10.27;100.00
49645;BME280;36494;50.730;-1.932;2023-02-17T09:04:47;101914.66;;;10.32;100.00
49645;BME280;36494;50.730;-1.932;2023-02-17T09:07:13;101912.87;;;10.35;100.00
49645;BME280;36494;50.730;-1.932;2023-02-17T09:09:38;101910.41;;;10.40;100.00
49645;BME280;36494;50.730;-1.932;2023-02-17T09:12:03;101918.19;;;10.43;100.00
49645;BME280;36494;50.730;-1.932;2023-02-17T09:14:28;101911.75;;;10.43;100.00
49645;BME280;36494;50.730;-1.932;2023-02-17T09:16:54;101903.96;;;10.45;100.00
49645;BME280;36494;50.730;-1.932;2023-02-17T09:19:19;101903.50;;;10.40;100.00
49645;BME280;36494;50.730;-1.932;2023-02-17T09:21:44;101912.27;;;10.46;100.00
49645;BME280;36494;50.730;-1.932;2023-02-17T09:24:09;101917.67;;;10.50;100.00
49645;BME280;36494;50.730;-1.932;2023-02-17T09:26:35;101917.91;;;10.48;100.00
49645;BME280;36494;50.730;-1.932;2023-02-17T09:29:00;101927.23;;;10.58;100.00
49645;BME280;36494;50.730;-1.932;2023-02-17T09:31:26;101917.59;;;10.48;100.00
49645;BME280;36494;50.730;-1.932;2023-02-17T09:33:51;101917.41;;;10.41;100.00
49645;BME280;36494;50.730;-1.932;2023-02-17T09:36:18;101921.63;;;10.56;100.00
49645;BME280;36494;50.730;-1.932;2023-02-17T09:38:41;101920.51;;;10.47;100.00
49645;BME280;36494;50.730;-1.932;2023-02-17T09:41:14;101926.27;;;10.59;100.00
49645;BME280;36494;50.730;-1.932;2023-02-17T09:43:32;101932.71;;;10.69;100.00
49645;BME280;36494;50.730;-1.932;2023-02-17T09:45:59;101944.15;;;10.76;100.00
49645;BME280;36494;50.730;-1.932;2023-02-17T09:48:26;101941.44;;;10.76;100.00
49645;BME280;36494;50.730;-1.932;2023-02-17T09:50:53;101940.94;;;10.76;100.00
49645;BME280;36494;50.730;-1.932;2023-02-17T09:53:18;101941.45;;;10.78;100.00
49645;BME280;36494;50.730;-1.932;2023-02-17T09:55:40;101941.66;;;10.76;100.00
49645;BME280;36494;50.730;-1.932;2023-02-17T09:58:07;101946.18;;;10.65;100.00
49645;BME280;36494;50.730;-1.932;2023-02-17T10:00:32;101951.90;;;10.71;100.00
49645;BME280;36494;50.730;-1.932;2023-02-17T10:02:58;101956.01;;;10.75;100.00
49645;BME280;36494;50.730;-1.932;2023-02-17T10:05:23;101962.03;;;10.76;100.00
49645;BME280;36494;50.730;-1.932;2023-02-17T10:07:46;101955.77;;;10.89;100.00
49645;BME280;36494;50.730;-1.932;2023-02-17T10:10:13;101954.71;;;10.90;100.00
49645;BME280;36494;50.730;-1.932;2023-02-17T10:12:37;101950.18;;;10.83;100.00
49645;BME280;36494;50.730;-1.932;2023-02-17T10:15:03;101944.75;;;10.94;100.00
49645;BME280;36494;50.730;-1.932;2023-02-17T10:17:31;101945.12;;;10.95;100.00
49645;BME280;36494;50.730;-1.932;2023-02-17T10:19:55;101939.17;;;11.01;100.00
49645;BME280;36494;50.730;-1.932;2023-02-17T10:22:18;101937.31;;;11.07;100.00
49645;BME280;36494;50.730;-1.932;2023-02-17T10:24:42;101923.18;;;11.07;100.00
49645;BME280;36494;50.730;-1.932;2023-02-17T10:27:19;101917.49;;;11.13;100.00
49645;BME280;36494;50.730;-1.932;2023-02-17T10:29:40;101913.63;;;11.20;100.00
49645;BME280;36494;50.730;-1.932;2023-02-17T10:32:09;101917.37;;;11.20;100.00
49645;BME280;36494;50.730;-1.932;2023-02-17T10:34:31;101911.47;;;11.18;100.00
49645;BME280;36494;50.730;-1.932;2023-02-17T10:36:54;101905.67;;;11.23;100.00
49645;BME280;36494;50.730;-1.932;2023-02-17T10:39:15;101905.51;;;11.32;100.00
49645;BME280;36494;50.730;-1.932;2023-02-17T10:41:40;101907.45;;;11.33;100.00
49645;BME280;36494;50.730;-1.932;2023-02-17T10:44:08;101905.11;;;11.39;100.00
49645;BME280;36494;50.730;-1.932;2023-02-17T10:46:30;101906.83;;;11.42;100.00
49645;BME280;36494;50.730;-1.932;2023-02-17T10:48:56;101912.29;;;11.39;100.00
49645;BME280;36494;50.730;-1.932;2023-02-17T10:51:23;101904.85;;;11.44;100.00
49645;BME280;36494;50.730;-1.932;2023-02-17T10:53:50;101907.96;;;11.53;100.00
49645;BME280;36494;50.730;-1.932;2023-02-17T10:56:14;101901.34;;;11.58;100.00
49645;BME280;36494;50.730;-1.932;2023-02-17T10:58:47;101900.01;;;11.55;100.00
49645;BME280;36494;50.730;-1.932;2023-02-17T11:01:03;101895.54;;;11.65;100.00
49645;BME280;36494;50.730;-1.932;2023-02-17T11:03:28;101897.59;;;11.65;100.00
49645;BME280;36494;50.730;-1.932;2023-02-17T11:05:54;101892.59;;;11.62;100.00
49645;BME280;36494;50.730;-1.932;2023-02-17T11:08:27;101886.86;;;11.62;100.00
49645;BME280;36494;50.730;-1.932;2023-02-17T11:10:43;101883.97;;;11.63;100.00
49645;BME280;36494;50.730;-1.932;2023-02-17T11:13:18;101893.98;;;11.64;100.00
49645;BME280;36494;50.730;-1.932;2023-02-17T11:15:35;101900.21;;;11.71;100.00
49645;BME280;36494;50.730;-1.932;2023-02-17T11:18:00;101901.34;;;11.75;100.00
49645;BME280;36494;50.730;-1.932;2023-02-17T11:20:30;101898.90;;;11.85;100.00
49645;BME280;36494;50.730;-1.932;2023-02-17T11:22:59;101893.44;;;11.87;100.00
49645;BME280;36494;50.730;-1.932;2023-02-17T11:25:21;101893.83;;;11.89;100.00
49645;BME280;36494;50.730;-1.932;2023-02-17T11:27:49;101895.31;;;11.89;100.00
49645;BME280;36494;50.730;-1.932;2023-02-17T11:30:12;101896.13;;;11.97;100.00
49645;BME280;36494;50.730;-1.932;2023-02-17T11:32:32;101895.04;;;11.91;100.00
49645;BME280;36494;50.730;-1.932;2023-02-17T11:34:58;101901.88;;;11.87;100.00
49645;BME280;36494;50.730;-1.932;2023-02-17T11:37:23;101900.42;;;11.87;100.00
49645;BME280;36494;50.730;-1.932;2023-02-17T11:39:49;101897.72;;;11.93;100.00
49645;BME280;36494;50.730;-1.932;2023-02-17T11:42:14;101890.15;;;11.94;100.00
49645;BME280;36494;50.730;-1.932;2023-02-17T11:44:38;101889.05;;;11.87;100.00
49645;BME280;36494;50.730;-1.932;2023-02-17T11:47:08;101891.28;;;11.83;100.00
49645;BME280;36494;50.730;-1.932;2023-02-17T11:49:39;101880.28;;;11.97;100.00
49645;BME280;36494;50.730;-1.932;2023-02-17T11:52:03;101886.21;;;12.00;100.00
49645;BME280;36494;50.730;-1.932;2023-02-17T11:54:23;101871.94;;;11.99;100.00
49645;BME280;36494;50.730;-1.932;2023-02-17T11:56:55;101861.12;;;12.03;100.00
49645;BME280;36494;50.730;-1.932;2023-02-17T11:59:20;101867.91;;;12.11;100.00
49645;BME280;36494;50.730;-1.932;2023-02-17T12:01:47;101865.73;;;12.09;100.00
49645;BME280;36494;50.730;-1.932;2023-02-17T12:04:21;101861.88;;;12.03;100.00
49645;BME280;36494;50.730;-1.932;2023-02-17T12:06:35;101865.00;;;12.18;100.00
49645;BME280;36494;50.730;-1.932;2023-02-17T12:09:02;101856.80;;;12.22;100.00
49645;BME280;36494;50.730;-1.932;2023-02-17T12:11:22;101861.00;;;12.25;100.00
49645;BME280;36494;50.730;-1.932;2023-02-17T12:13:53;101850.94;;;12.31;100.00
49645;BME280;36494;50.730;-1.932;2023-02-17T12:16:18;101855.65;;;12.41;100.00
49645;BME280;36494;50.730;-1.932;2023-02-17T12:18:45;101866.04;;;12.42;100.00
49645;BME280;36494;50.730;-1.932;2023-02-17T12:21:04;101870.07;;;12.38;100.00